sensor_id;sensor_type;location;lat;lon;timestamp;pressure;altitude;pressure_sealevel;temperature
63220;BMP180;49320;52.512;13.448;2023-04-24T00:01:21;99906.00;;;19.70
63220;BMP180;49320;52.512;13.448;2023-04-24T00:03:48;99889.00;;;19.70
63220;BMP180;49320;52.512;13.448;2023-04-24T00:06:14;99882.00;;;19.70
63220;BMP180;49320;52.512;13.448;2023-04-24T00:08:43;99883.00;;;19.60
63220;BMP180;49320;52.512;13.448;2023-04-24T00:11:10;99882.00;;;19.60
63220;BMP180;49320;52.512;13.448;2023-04-24T00:13:37;99883.00;;;19.60
63220;BMP180;49320;52.512;13.448;2023-04-24T00:16:04;99865.00;;;19.60
63220;BMP180;49320;52.512;13.448;2023-04-24T00:18:32;99868.00;;;19.60
63220;BMP180;49320;52.512;13.448;2023-04-24T00:20:59;99865.00;;;19.60
63220;BMP180;49320;52.512;13.448;2023-04-24T00:23:26;99868.00;;;19.60
63220;BMP180;49320;52.512;13.448;2023-04-24T00:25:53;99863.00;;;19.50
63220;BMP180;49320;52.512;13.448;2023-04-24T00:28:20;99866.00;;;19.50
63220;BMP180;49320;52.512;13.448;2023-04-24T00:30:47;99868.00;;;19.50
63220;BMP180;49320;52.512;13.448;2023-04-24T00:33:13;99850.00;;;19.50
63220;BMP180;49320;52.512;13.448;2023-04-24T00:35:41;99849.00;;;19.50
63220;BMP180;49320;52.512;13.448;2023-04-24T00:38:08;99843.00;;;19.40
63220;BMP180;49320;52.512;13.448;2023-04-24T00:40:34;99839.00;;;19.40
63220;BMP180;49320;52.512;13.448;2023-04-24T00:43:01;99841.00;;;19.40
63220;BMP180;49320;52.512;13.448;2023-04-24T00:45:28;99843.00;;;19.40
63220;BMP180;49320;52.512;13.448;2023-04-24T00:47:55;99838.00;;;19.40
63220;BMP180;49320;52.512;13.448;2023-04-24T00:50:24;99830.00;;;19.40
63220;BMP180;49320;52.512;13.448;2023-04-24T00:52:52;99827.00;;;19.40
63220;BMP180;49320;52.512;13.448;2023-04-24T00:55:19;99826.00;;;19.30
63220;BMP180;49320;52.512;13.448;2023-04-24T00:57:47;99820.00;;;19.30
63220;BMP180;49320;52.512;13.448;2023-04-24T01:00:16;99818.00;;;19.30
63220;BMP180;49320;52.512;13.448;2023-04-24T01:02:44;99821.00;;;19.30
63220;BMP180;49320;52.512;13.448;2023-04-24T01:05:15;99808.00;;;19.20
63220;BMP180;49320;52.512;13.448;2023-04-24T01:07:45;99807.00;;;19.20
63220;BMP180;49320;52.512;13.448;2023-04-24T01:10:15;99813.00;;;19.20
63220;BMP180;49320;52.512;13.448;2023-04-24T01:12:44;99811.00;;;19.20
63220;BMP180;49320;52.512;13.448;2023-04-24T01:15:11;99834.00;;;19.20
63220;BMP180;49320;52.512;13.448;2023-04-24T01:17:37;99827.00;;;19.20
63220;BMP180;49320;52.512;13.448;2023-04-24T01:20:06;99828.00;;;19.20
63220;BMP180;49320;52.512;13.448;2023-04-24T01:22:34;99825.00;;;19.20
63220;BMP180;49320;52.512;13.448;2023-04-24T01:25:02;99825.00;;;19.20
63220;BMP180;49320;52.512;13.448;2023-04-24T01:27:29;99825.00;;;19.20
63220;BMP180;49320;52.512;13.448;2023-04-24T01:29:57;99817.00;;;19.20
63220;BMP180;49320;52.512;13.448;2023-04-24T01:32:25;99820.00;;;19.20
63220;BMP180;49320;52.512;13.448;2023-04-24T01:34:52;99811.00;;;19.20
63220;BMP180;49320;52.512;13.448;2023-04-24T01:37:19;99826.00;;;19.20
63220;BMP180;49320;52.512;13.448;2023-04-24T01:39:46;99808.00;;;19.20
63220;BMP180;49320;52.512;13.448;2023-04-24T01:42:13;99806.00;;;19.20
63220;BMP180;49320;52.512;13.448;2023-04-24T01:44:41;99797.00;;;19.10
63220;BMP180;49320;52.512;13.448;2023-04-24T01:47:08;99804.00;;;19.10
63220;BMP180;49320;52.512;13.448;2023-04-24T01:49:37;99794.00;;;19.10
63220;BMP180;49320;52.512;13.448;2023-04-24T01:52:06;99797.00;;;19.10
63220;BMP180;49320;52.512;13.448;2023-04-24T01:54:33;99795.00;;;19.10
63220;BMP180;49320;52.512;13.448;2023-04-24T01:57:00;99788.00;;;19.10
63220;BMP180;49320;52.512;13.448;2023-04-24T01:59:29;99800.00;;;19.20
63220;BMP180;49320;52.512;13.448;2023-04-24T02:01:56;99782.00;;;19.10
63220;BMP180;49320;52.512;13.448;2023-04-24T02:04:23;99788.00;;;19.10
63220;BMP180;49320;52.512;13.448;2023-04-24T02:06:50;99784.00;;;19.10
63220;BMP180;49320;52.512;13.448;2023-04-24T02:09:17;99781.00;;;19.10
63220;BMP180;49320;52.512;13.448;2023-04-24T02:11:44;99788.00;;;19.10
63220;BMP180;49320;52.512;13.448;2023-04-24T02:14:10;99778.00;;;19.10
63220;BMP180;49320;52.512;13.448;2023-04-24T02:16:37;99774.00;;;19.10
63220;BMP180;49320;52.512;13.448;2023-04-24T02:19:04;99773.00;;;19.10
63220;BMP180;49320;52.512;13.448;2023-04-24T02:21:31;99773.00;;;19.10
63220;BMP180;49320;52.512;13.448;2023-04-24T02:23:58;99774.00;;;19.10
63220;BMP180;49320;52.512;13.448;2023-04-24T02:26:25;99773.00;;;19.10
63220;BMP180;49320;52.512;13.448;2023-04-24T02:28:51;99764.00;;;19.10
63220;BMP180;49320;52.512;13.448;2023-04-24T02:31:18;99761.00;;;19.10
63220;BMP180;49320;52.512;13.448;2023-04-24T02:33:45;99775.00;;;19.10
63220;BMP180;49320;52.512;13.448;2023-04-24T02:36:12;99768.00;;;19.10
63220;BMP180;49320;52.512;13.448;2023-04-24T02:38:40;99774.00;;;19.10
63220;BMP180;49320;52.512;13.448;2023-04-24T02:41:07;99763.00;;;19.10
63220;BMP180;49320;52.512;13.448;2023-04-24T02:43:33;99765.00;;;19.10
63220;BMP180;49320;52.512;13.448;2023-04-24T02:46:00;99752.00;;;19.10
63220;BMP180;49320;52.512;13.448;2023-04-24T02:48:27;99765.00;;;19.10
63220;BMP180;49320;52.512;13.448;2023-04-24T02:50:54;99759.00;;;19.10
63220;BMP180;49320;52.512;13.448;2023-04-24T02:53:21;99763.00;;;19.10
63220;BMP180;49320;52.512;13.448;2023-04-24T02:55:49;99768.00;;;19.10
63220;BMP180;49320;52.512;13.448;2023-04-24T02:58:16;99764.00;;;19.10
63220;BMP180;49320;52.512;13.448;2023-04-24T03:00:43;99758.00;;;19.10
63220;BMP180;49320;52.512;13.448;2023-04-24T03:03:10;99760.00;;;19.20
63220;BMP180;49320;52.512;13.448;2023-04-24T03:05:37;99766.00;;;19.20
63220;BMP180;49320;52.512;13.448;2023-04-24T03:08:04;99763.00;;;19.20
63220;BMP180;49320;52.512;13.448;2023-04-24T03:10:31;99761.00;;;19.20
63220;BMP180;49320;52.512;13.448;2023-04-24T03:12:58;99759.00;;;19.20
63220;BMP180;49320;52.512;13.448;2023-04-24T03:15:26;99755.00;;;19.20
63220;BMP180;49320;52.512;13.448;2023-04-24T03:17:53;99768.00;;;19.30
63220;BMP180;49320;52.512;13.448;2023-04-24T03:20:22;99765.00;;;19.30
63220;BMP180;49320;52.512;13.448;2023-04-24T03:22:49;99772.00;;;19.30
63220;BMP180;49320;52.512;13.448;2023-04-24T03:25:16;99765.00;;;19.40
63220;BMP180;49320;52.512;13.448;2023-04-24T03:27:43;99761.00;;;19.40
63220;BMP180;49320;52.512;13.448;2023-04-24T03:30:10;99766.00;;;19.50
63220;BMP180;49320;52.512;13.448;2023-04-24T03:32:36;99766.00;;;19.50
63220;BMP180;49320;52.512;13.448;2023-04-24T03:35:07;99765.00;;;19.50
63220;BMP180;49320;52.512;13.448;2023-04-24T03:37:34;99752.00;;;19.60
63220;BMP180;49320;52.512;13.448;2023-04-24T03:40:02;99762.00;;;19.60
63220;BMP180;49320;52.512;13.448;2023-04-24T03:42:29;99758.00;;;19.70
63220;BMP180;49320;52.512;13.448;2023-04-24T03:44:56;99761.00;;;19.70
63220;BMP180;49320;52.512;13.448;2023-04-24T03:47:23;99767.00;;;19.70
63220;BMP180;49320;52.512;13.448;2023-04-24T03:49:50;99776.00;;;19.80
63220;BMP180;49320;52.512;13.448;2023-04-24T03:52:17;99767.00;;;19.80
63220;BMP180;49320;52.512;13.448;2023-04-24T03:54:43;99775.00;;;19.80
63220;BMP180;49320;52.512;13.448;2023-04-24T03:57:10;99775.00;;;19.90
63220;BMP180;49320;52.512;13.448;2023-04-24T03:59:37;99770.00;;;19.90
63220;BMP180;49320;52.512;13.448;2023-04-24T04:02:04;99765.00;;;20.00
63220;BMP180;49320;52.512;13.448;2023-04-24T04:04:31;99760.00;;;20.00
63220;BMP180;49320;52.512;13.448;2023-04-24T04:06:58;99772.00;;;20.00
63220;BMP180;49320;52.512;13.448;2023-04-24T04:09:27;99764.00;;;20.10
63220;BMP180;49320;52.512;13.448;2023-04-24T04:11:54;99772.00;;;20.10
63220;BMP180;49320;52.512;13.448;2023-04-24T04:14:22;99757.00;;;20.10
63220;BMP180;49320;52.512;13.448;2023-04-24T04:16:50;99761.00;;;20.10
63220;BMP180;49320;52.512;13.448;2023-04-24T04:19:20;99752.00;;;20.10
63220;BMP180;49320;52.512;13.448;2023-04-24T04:21:47;99760.00;;;20.10
63220;BMP180;49320;52.512;13.448;2023-04-24T04:24:19;99760.00;;;20.10
63220;BMP180;49320;52.512;13.448;2023-04-24T04:26:50;99754.00;;;20.10
63220;BMP180;49320;52.512;13.448;2023-04-24T04:29:18;99746.00;;;20.20
63220;BMP180;49320;52.512;13.448;2023-04-24T04:31:45;99755.00;;;20.20
63220;BMP180;49320;52.512;13.448;2023-04-24T04:34:12;99746.00;;;20.20
63220;BMP180;49320;52.512;13.448;2023-04-24T04:36:41;99759.00;;;20.20
63220;BMP180;49320;52.512;13.448;2023-04-24T04:39:08;99761.00;;;20.20
63220;BMP180;49320;52.512;13.448;2023-04-24T04:41:35;99761.00;;;20.20
63220;BMP180;49320;52.512;13.448;2023-04-24T04:44:02;99751.00;;;20.20
63220;BMP180;49320;52.512;13.448;2023-04-24T04:46:31;99771.00;;;20.30
63220;BMP180;49320;52.512;13.448;2023-04-24T04:49:01;99764.00;;;20.30
63220;BMP180;49320;52.512;13.448;2023-04-24T04:51:28;99776.00;;;20.30
63220;BMP180;49320;52.512;13.448;2023-04-24T04:53:55;99781.00;;;20.30
63220;BMP180;49320;52.512;13.448;2023-04-24T04:56:22;99786.00;;;20.40
63220;BMP180;49320;52.512;13.448;2023-04-24T04:58:49;99785.00;;;20.40
63220;BMP180;49320;52.512;13.448;2023-04-24T05:01:16;99789.00;;;20.40
63220;BMP180;49320;52.512;13.448;2023-04-24T05:03:44;99788.00;;;20.50
63220;BMP180;49320;52.512;13.448;2023-04-24T05:06:11;99787.00;;;20.50
63220;BMP180;49320;52.512;13.448;2023-04-24T05:08:38;99785.00;;;20.50
63220;BMP180;49320;52.512;13.448;2023-04-24T05:11:05;99790.00;;;20.60
63220;BMP180;49320;52.512;13.448;2023-04-24T05:13:32;99789.00;;;20.60
63220;BMP180;49320;52.512;13.448;2023-04-24T05:16:06;99789.00;;;20.60
63220;BMP180;49320;52.512;13.448;2023-04-24T05:18:33;99788.00;;;20.60
63220;BMP180;49320;52.512;13.448;2023-04-24T05:21:00;99784.00;;;20.70
63220;BMP180;49320;52.512;13.448;2023-04-24T05:23:28;99785.00;;;20.70
63220;BMP180;49320;52.512;13.448;2023-04-24T05:25:54;99788.00;;;20.70
63220;BMP180;49320;52.512;13.448;2023-04-24T05:28:21;99790.00;;;20.70
63220;BMP180;49320;52.512;13.448;2023-04-24T05:30:48;99789.00;;;20.80
63220;BMP180;49320;52.512;13.448;2023-04-24T05:33:15;99790.00;;;20.80
63220;BMP180;49320;52.512;13.448;2023-04-24T05:35:42;99790.00;;;20.90
63220;BMP180;49320;52.512;13.448;2023-04-24T05:38:14;99796.00;;;20.90
63220;BMP180;49320;52.512;13.448;2023-04-24T05:40:44;99793.00;;;21.00
63220;BMP180;49320;52.512;13.448;2023-04-24T05:43:11;99789.00;;;21.10
63220;BMP180;49320;52.512;13.448;2023-04-24T05:45:38;99795.00;;;21.10
63220;BMP180;49320;52.512;13.448;2023-04-24T05:48:05;99795.00;;;21.20
63220;BMP180;49320;52.512;13.448;2023-04-24T05:50:32;99794.00;;;21.20
63220;BMP180;49320;52.512;13.448;2023-04-24T05:53:02;99792.00;;;21.20
63220;BMP180;49320;52.512;13.448;2023-04-24T05:55:31;99789.00;;;21.30
63220;BMP180;49320;52.512;13.448;2023-04-24T05:57:58;99795.00;;;21.30
63220;BMP180;49320;52.512;13.448;2023-04-24T06:00:25;99798.00;;;21.30
63220;BMP180;49320;52.512;13.448;2023-04-24T06:02:53;99801.00;;;21.40
63220;BMP180;49320;52.512;13.448;2023-04-24T06:05:21;99809.00;;;21.40
63220;BMP180;49320;52.512;13.448;2023-04-24T06:07:48;99798.00;;;21.40
63220;BMP180;49320;52.512;13.448;2023-04-24T06:10:15;99810.00;;;21.50
63220;BMP180;49320;52.512;13.448;2023-04-24T06:12:42;99809.00;;;21.50
63220;BMP180;49320;52.512;13.448;2023-04-24T06:15:09;99800.00;;;21.60
63220;BMP180;49320;52.512;13.448;2023-04-24T06:17:36;99818.00;;;21.70
63220;BMP180;49320;52.512;13.448;2023-04-24T06:20:04;99818.00;;;21.70
63220;BMP180;49320;52.512;13.448;2023-04-24T06:22:32;99820.00;;;21.80
63220;BMP180;49320;52.512;13.448;2023-04-24T06:24:59;99819.00;;;21.80
63220;BMP180;49320;52.512;13.448;2023-04-24T06:27:27;99826.00;;;21.80
63220;BMP180;49320;52.512;13.448;2023-04-24T06:29:53;99819.00;;;21.80
63220;BMP180;49320;52.512;13.448;2023-04-24T06:32:24;99819.00;;;21.80
63220;BMP180;49320;52.512;13.448;2023-04-24T06:34:52;99818.00;;;21.80
63220;BMP180;49320;52.512;13.448;2023-04-24T06:37:20;99819.00;;;21.80
63220;BMP180;49320;52.512;13.448;2023-04-24T06:39:47;99825.00;;;21.80
63220;BMP180;49320;52.512;13.448;2023-04-24T06:42:14;99824.00;;;21.90
63220;BMP180;49320;52.512;13.448;2023-04-24T06:44:41;99831.00;;;21.90
63220;BMP180;49320;52.512;13.448;2023-04-24T06:47:11;99826.00;;;22.00
63220;BMP180;49320;52.512;13.448;2023-04-24T06:49:40;99837.00;;;22.00
63220;BMP180;49320;52.512;13.448;2023-04-24T06:52:07;99833.00;;;22.00
63220;BMP180;49320;52.512;13.448;2023-04-24T06:54:34;99829.00;;;22.10
63220;BMP180;49320;52.512;13.448;2023-04-24T06:57:01;99826.00;;;22.20
63220;BMP180;49320;52.512;13.448;2023-04-24T06:59:30;99830.00;;;22.30
63220;BMP180;49320;52.512;13.448;2023-04-24T07:01:57;99825.00;;;22.40
63220;BMP180;49320;52.512;13.448;2023-04-24T07:04:24;99812.00;;;22.50
63220;BMP180;49320;52.512;13.448;2023-04-24T07:06:52;99810.00;;;22.70
63220;BMP180;49320;52.512;13.448;2023-04-24T07:09:23;99810.00;;;22.70
63220;BMP180;49320;52.512;13.448;2023-04-24T07:11:51;99809.00;;;22.80
63220;BMP180;49320;52.512;13.448;2023-04-24T07:14:18;99805.00;;;22.90
63220;BMP180;49320;52.512;13.448;2023-04-24T07:16:46;99809.00;;;23.00
63220;BMP180;49320;52.512;13.448;2023-04-24T07:19:13;99806.00;;;23.00
63220;BMP180;49320;52.512;13.448;2023-04-24T07:21:41;99811.00;;;23.10
63220;BMP180;49320;52.512;13.448;2023-04-24T07:24:08;99804.00;;;23.10
63220;BMP180;49320;52.512;13.448;2023-04-24T07:26:39;99809.00;;;23.10
63220;BMP180;49320;52.512;13.448;2023-04-24T07:29:07;99805.00;;;23.20
63220;BMP180;49320;52.512;13.448;2023-04-24T07:31:34;99819.00;;;23.20
63220;BMP180;49320;52.512;13.448;2023-04-24T07:34:01;99822.00;;;23.20
63220;BMP180;49320;52.512;13.448;2023-04-24T07:36:28;99820.00;;;23.30
63220;BMP180;49320;52.512;13.448;2023-04-24T07:38:55;99823.00;;;23.40
63220;BMP180;49320;52.512;13.448;2023-04-24T07:41:23;99833.00;;;23.50
63220;BMP180;49320;52.512;13.448;2023-04-24T07:43:51;99826.00;;;23.60
63220;BMP180;49320;52.512;13.448;2023-04-24T07:46:19;99822.00;;;23.60
63220;BMP180;49320;52.512;13.448;2023-04-24T07:48:46;99817.00;;;23.60
63220;BMP180;49320;52.512;13.448;2023-04-24T07:51:24;99807.00;;;23.70
63220;BMP180;49320;52.512;13.448;2023-04-24T07:53:53;99818.00;;;23.60
63220;BMP180;49320;52.512;13.448;2023-04-24T07:56:23;99819.00;;;23.60
63220;BMP180;49320;52.512;13.448;2023-04-24T07:58:53;99817.00;;;23.50
63220;BMP180;49320;52.512;13.448;2023-04-24T08:01:20;99821.00;;;23.50
63220;BMP180;49320;52.512;13.448;2023-04-24T08:03:47;99812.00;;;23.50
63220;BMP180;49320;52.512;13.448;2023-04-24T08:06:14;99811.00;;;23.60
63220;BMP180;49320;52.512;13.448;2023-04-24T08:08:41;99805.00;;;23.60
63220;BMP180;49320;52.512;13.448;2023-04-24T08:15:15;99807.00;;;23.60
63220;BMP180;49320;52.512;13.448;2023-04-24T08:17:41;99803.00;;;23.60
63220;BMP180;49320;52.512;13.448;2023-04-24T08:20:10;99817.00;;;23.70
63220;BMP180;49320;52.512;13.448;2023-04-24T08:22:42;99824.00;;;23.70
63220;BMP180;49320;52.512;13.448;2023-04-24T08:25:10;99812.00;;;23.80
63220;BMP180;49320;52.512;13.448;2023-04-24T08:27:37;99798.00;;;23.90
63220;BMP180;49320;52.512;13.448;2023-04-24T08:30:06;99807.00;;;23.90
63220;BMP180;49320;52.512;13.448;2023-04-24T08:32:33;99795.00;;;24.00
63220;BMP180;49320;52.512;13.448;2023-04-24T08:35:00;99806.00;;;24.10
63220;BMP180;49320;52.512;13.448;2023-04-24T08:37:27;99813.00;;;24.30
63220;BMP180;49320;52.512;13.448;2023-04-24T08:39:54;99803.00;;;24.40
63220;BMP180;49320;52.512;13.448;2023-04-24T08:42:21;99802.00;;;24.60
63220;BMP180;49320;52.512;13.448;2023-04-24T08:44:49;99798.00;;;24.90
63220;BMP180;49320;52.512;13.448;2023-04-24T08:47:17;99805.00;;;25.00
63220;BMP180;49320;52.512;13.448;2023-04-24T08:49:48;99801.00;;;25.10
63220;BMP180;49320;52.512;13.448;2023-04-24T08:52:18;99812.00;;;25.30
63220;BMP180;49320;52.512;13.448;2023-04-24T08:54:46;99811.00;;;25.40
63220;BMP180;49320;52.512;13.448;2023-04-24T08:57:14;99818.00;;;25.60
63220;BMP180;49320;52.512;13.448;2023-04-24T08:59:42;99818.00;;;25.70
63220;BMP180;49320;52.512;13.448;2023-04-24T09:02:10;99819.00;;;25.80
63220;BMP180;49320;52.512;13.448;2023-04-24T09:04:40;99820.00;;;25.80
63220;BMP180;49320;52.512;13.448;2023-04-24T09:07:10;99808.00;;;25.90
63220;BMP180;49320;52.512;13.448;2023-04-24T09:09:38;99817.00;;;26.00
63220;BMP180;49320;52.512;13.448;2023-04-24T09:12:06;99812.00;;;26.10
63220;BMP180;49320;52.512;13.448;2023-04-24T09:14:33;99812.00;;;26.20
63220;BMP180;49320;52.512;13.448;2023-04-24T09:17:00;99827.00;;;26.30
63220;BMP180;49320;52.512;13.448;2023-04-24T09:19:26;99823.00;;;26.40
63220;BMP180;49320;52.512;13.448;2023-04-24T09:21:53;99825.00;;;26.50
63220;BMP180;49320;52.512;13.448;2023-04-24T09:24:22;99827.00;;;26.50
63220;BMP180;49320;52.512;13.448;2023-04-24T09:26:56;99825.00;;;26.60
63220;BMP180;49320;52.512;13.448;2023-04-24T09:29:28;99826.00;;;26.60
63220;BMP180;49320;52.512;13.448;2023-04-24T09:31:55;99828.00;;;26.60
63220;BMP180;49320;52.512;13.448;2023-04-24T09:34:25;99827.00;;;26.70
63220;BMP180;49320;52.512;13.448;2023-04-24T09:36:54;99829.00;;;26.80
63220;BMP180;49320;52.512;13.448;2023-04-24T09:39:21;99832.00;;;26.90
63220;BMP180;49320;52.512;13.448;2023-04-24T09:41:55;99834.00;;;26.90
63220;BMP180;49320;52.512;13.448;2023-04-24T09:44:28;99830.00;;;26.90
63220;BMP180;49320;52.512;13.448;2023-04-24T09:46:57;99829.00;;;27.00
63220;BMP180;49320;52.512;13.448;2023-04-24T09:49:27;99841.00;;;27.10
63220;BMP180;49320;52.512;13.448;2023-04-24T09:52:08;99847.00;;;27.10
63220;BMP180;49320;52.512;13.448;2023-04-24T09:54:36;99836.00;;;27.10
63220;BMP180;49320;52.512;13.448;2023-04-24T09:57:04;99836.00;;;27.10
63220;BMP180;49320;52.512;13.448;2023-04-24T09:59:31;99839.00;;;27.10
63220;BMP180;49320;52.512;13.448;2023-04-24T10:02:00;99844.00;;;27.10
63220;BMP180;49320;52.512;13.448;2023-04-24T10:04:29;99825.00;;;27.10
63220;BMP180;49320;52.512;13.448;2023-04-24T10:06:57;99830.00;;;27.10
63220;BMP180;49320;52.512;13.448;2023-04-24T10:09:26;99826.00;;;27.20
63220;BMP180;49320;52.512;13.448;2023-04-24T10:11:54;99825.00;;;27.20
63220;BMP180;49320;52.512;13.448;2023-04-24T10:14:24;99813.00;;;27.20
63220;BMP180;49320;52.512;13.448;2023-04-24T10:16:54;99821.00;;;27.20
63220;BMP180;49320;52.512;13.448;2023-04-24T10:19:25;99825.00;;;27.30
63220;BMP180;49320;52.512;13.448;2023-04-24T10:21:52;99831.00;;;27.40
63220;BMP180;49320;52.512;13.448;2023-04-24T10:24:21;99831.00;;;27.40
63220;BMP180;49320;52.512;13.448;2023-04-24T10:26:48;99820.00;;;27.50
63220;BMP180;49320;52.512;13.448;2023-04-24T10:29:18;99833.00;;;27.50
63220;BMP180;49320;52.512;13.448;2023-04-24T10:31:45;99826.00;;;27.60
63220;BMP180;49320;52.512;13.448;2023-04-24T10:34:16;99829.00;;;27.60
63220;BMP180;49320;52.512;13.448;2023-04-24T10:36:53;99835.00;;;27.70
63220;BMP180;49320;52.512;13.448;2023-04-24T10:39:24;99826.00;;;27.70
63220;BMP180;49320;52.512;13.448;2023-04-24T10:41:55;99827.00;;;27.70
63220;BMP180;49320;52.512;13.448;2023-04-24T10:44:24;99827.00;;;27.80
63220;BMP180;49320;52.512;13.448;2023-04-24T10:46:55;99826.00;;;27.70
63220;BMP180;49320;52.512;13.448;2023-04-24T10:49:31;99830.00;;;27.70
63220;BMP180;49320;52.512;13.448;2023-04-24T10:52:03;99821.00;;;27.60
63220;BMP180;49320;52.512;13.448;2023-04-24T10:54:46;99832.00;;;27.50
63220;BMP180;49320;52.512;13.448;2023-04-24T10:59:48;99827.00;;;27.40
63220;BMP180;49320;52.512;13.448;2023-04-24T11:02:15;99813.00;;;27.30
63220;BMP180;49320;52.512;13.448;2023-04-24T11:04:43;99812.00;;;27.20
63220;BMP180;49320;52.512;13.448;2023-04-24T11:07:11;99819.00;;;27.20
63220;BMP180;49320;52.512;13.448;2023-04-24T11:09:38;99821.00;;;27.10
63220;BMP180;49320;52.512;13.448;2023-04-24T11:12:11;99801.00;;;27.10
63220;BMP180;49320;52.512;13.448;2023-04-24T11:17:38;99810.00;;;27.30
63220;BMP180;49320;52.512;13.448;2023-04-24T11:20:08;99822.00;;;27.40
63220;BMP180;49320;52.512;13.448;2023-04-24T11:22:54;99822.00;;;27.40
63220;BMP180;49320;52.512;13.448;2023-04-24T11:25:22;99810.00;;;27.50
63220;BMP180;49320;52.512;13.448;2023-04-24T11:27:50;99807.00;;;27.50
63220;BMP180;49320;52.512;13.448;2023-04-24T11:30:20;99812.00;;;27.60
63220;BMP180;49320;52.512;13.448;2023-04-24T11:32:53;99809.00;;;27.60
63220;BMP180;49320;52.512;13.448;2023-04-24T11:35:22;99808.00;;;27.50
63220;BMP180;49320;52.512;13.448;2023-04-24T11:37:53;99823.00;;;27.40
63220;BMP180;49320;52.512;13.448;2023-04-24T11:40:23;99831.00;;;27.20
63220;BMP180;49320;52.512;13.448;2023-04-24T11:42:53;99843.00;;;27.00
63220;BMP180;49320;52.512;13.448;2023-04-24T11:45:29;99851.00;;;26.70
63220;BMP180;49320;52.512;13.448;2023-04-24T11:47:57;99842.00;;;26.50
63220;BMP180;49320;52.512;13.448;2023-04-24T11:50:26;99834.00;;;26.20
63220;BMP180;49320;52.512;13.448;2023-04-24T11:52:54;99829.00;;;26.00
63220;BMP180;49320;52.512;13.448;2023-04-24T11:57:53;99837.00;;;25.80
63220;BMP180;49320;52.512;13.448;2023-04-24T12:00:30;99828.00;;;25.70
63220;BMP180;49320;52.512;13.448;2023-04-24T12:03:11;99819.00;;;25.70
63220;BMP180;49320;52.512;13.448;2023-04-24T12:05:39;99823.00;;;25.80
63220;BMP180;49320;52.512;13.448;2023-04-24T12:08:07;99824.00;;;25.70
63220;BMP180;49320;52.512;13.448;2023-04-24T12:10:36;99811.00;;;25.70
63220;BMP180;49320;52.512;13.448;2023-04-24T12:13:02;99821.00;;;25.70
63220;BMP180;49320;52.512;13.448;2023-04-24T12:15:30;99824.00;;;25.70
63220;BMP180;49320;52.512;13.448;2023-04-24T12:17:57;99811.00;;;25.70
63220;BMP180;49320;52.512;13.448;2023-04-24T12:20:28;99808.00;;;25.70
63220;BMP180;49320;52.512;13.448;2023-04-24T12:23:00;99805.00;;;25.60
63220;BMP180;49320;52.512;13.448;2023-04-24T12:25:32;99799.00;;;25.70
63220;BMP180;49320;52.512;13.448;2023-04-24T12:30:39;99794.00;;;25.70
63220;BMP180;49320;52.512;13.448;2023-04-24T12:33:06;99788.00;;;25.80
63220;BMP180;49320;52.512;13.448;2023-04-24T12:35:33;99789.00;;;25.80
63220;BMP180;49320;52.512;13.448;2023-04-24T12:38:11;99790.00;;;25.90
63220;BMP180;49320;52.512;13.448;2023-04-24T12:40:41;99783.00;;;25.90
63220;BMP180;49320;52.512;13.448;2023-04-24T12:43:19;99782.00;;;26.00
63220;BMP180;49320;52.512;13.448;2023-04-24T12:45:48;99783.00;;;26.00
63220;BMP180;49320;52.512;13.448;2023-04-24T12:48:15;99780.00;;;26.10
63220;BMP180;49320;52.512;13.448;2023-04-24T12:50:43;99785.00;;;26.20
63220;BMP180;49320;52.512;13.448;2023-04-24T12:53:13;99788.00;;;26.30
63220;BMP180;49320;52.512;13.448;2023-04-24T12:55:40;99784.00;;;26.40
63220;BMP180;49320;52.512;13.448;2023-04-24T12:58:07;99780.00;;;26.50
63220;BMP180;49320;52.512;13.448;2023-04-24T13:00:34;99782.00;;;26.60
63220;BMP180;49320;52.512;13.448;2023-04-24T13:03:01;99775.00;;;26.70
63220;BMP180;49320;52.512;13.448;2023-04-24T13:05:29;99777.00;;;26.80
63220;BMP180;49320;52.512;13.448;2023-04-24T13:07:57;99785.00;;;26.90
63220;BMP180;49320;52.512;13.448;2023-04-24T13:10:24;99794.00;;;27.00
63220;BMP180;49320;52.512;13.448;2023-04-24T13:12:51;99780.00;;;27.00
63220;BMP180;49320;52.512;13.448;2023-04-24T13:15:17;99778.00;;;27.00
63220;BMP180;49320;52.512;13.448;2023-04-24T13:17:44;99785.00;;;27.10
63220;BMP180;49320;52.512;13.448;2023-04-24T13:20:11;99783.00;;;27.10
63220;BMP180;49320;52.512;13.448;2023-04-24T13:22:38;99787.00;;;27.20
63220;BMP180;49320;52.512;13.448;2023-04-24T13:25:06;99782.00;;;27.30
63220;BMP180;49320;52.512;13.448;2023-04-24T13:27:33;99781.00;;;27.40
63220;BMP180;49320;52.512;13.448;2023-04-24T13:30:00;99774.00;;;27.50
63220;BMP180;49320;52.512;13.448;2023-04-24T13:32:28;99771.00;;;27.60
63220;BMP180;49320;52.512;13.448;2023-04-24T13:34:56;99767.00;;;27.60
63220;BMP180;49320;52.512;13.448;2023-04-24T13:37:23;99766.00;;;27.60
63220;BMP180;49320;52.512;13.448;2023-04-24T13:39:51;99773.00;;;27.50
63220;BMP180;49320;52.512;13.448;2023-04-24T13:42:18;99772.00;;;27.50
63220;BMP180;49320;52.512;13.448;2023-04-24T13:44:45;99777.00;;;27.40
63220;BMP180;49320;52.512;13.448;2023-04-24T13:47:12;99769.00;;;27.30
63220;BMP180;49320;52.512;13.448;2023-04-24T13:49:39;99775.00;;;27.30
63220;BMP180;49320;52.512;13.448;2023-04-24T13:52:07;99776.00;;;27.20
63220;BMP180;49320;52.512;13.448;2023-04-24T13:54:34;99776.00;;;27.20
63220;BMP180;49320;52.512;13.448;2023-04-24T13:57:01;99758.00;;;27.20
63220;BMP180;49320;52.512;13.448;2023-04-24T13:59:29;99770.00;;;27.20
63220;BMP180;49320;52.512;13.448;2023-04-24T14:01:56;99774.00;;;27.20
63220;BMP180;49320;52.512;13.448;2023-04-24T14:04:24;99780.00;;;27.20
63220;BMP180;49320;52.512;13.448;2023-04-24T14:06:52;99777.00;;;27.20
63220;BMP180;49320;52.512;13.448;2023-04-24T14:09:19;99770.00;;;27.20
63220;BMP180;49320;52.512;13.448;2023-04-24T14:11:46;99773.00;;;27.20
63220;BMP180;49320;52.512;13.448;2023-04-24T14:14:13;99787.00;;;27.20
63220;BMP180;49320;52.512;13.448;2023-04-24T14:16:40;99768.00;;;27.10